createdAt,value
2023-05-25T00:00:57.539Z,12.41
2023-05-25T00:04:04.656Z,12.30
2023-05-25T00:07:07.320Z,11.86
2023-05-25T00:10:10.187Z,11.81
2023-05-25T00:13:12.664Z,11.95
2023-05-25T00:16:14.982Z,11.75
2023-05-25T00:19:18.746Z,11.76
2023-05-25T00:22:21.382Z,11.59
2023-05-25T00:25:23.797Z,11.55
2023-05-25T00:28:26.371Z,11.54
2023-05-25T00:31:29.916Z,11.58
2023-05-25T00:34:32.521Z,11.71
2023-05-25T00:37:34.900Z,11.43
2023-05-25T00:40:38.699Z,11.39
2023-05-25T00:43:40.972Z,11.43
2023-05-25T00:46:48.732Z,11.39
2023-05-25T00:49:51.746Z,11.36
2023-05-25T00:52:54.790Z,11.42
2023-05-25T00:56:08.922Z,11.35
2023-05-25T00:59:12.953Z,11.41
2023-05-25T01:02:17.686Z,11.32
2023-05-25T01:05:22.500Z,11.14
2023-05-25T01:08:27.071Z,11.08
2023-05-25T01:11:33.162Z,11.25
2023-05-25T01:14:35.932Z,11.16
2023-05-25T01:17:38.973Z,11.14
2023-05-25T01:20:58.254Z,10.96
2023-05-25T01:24:08.719Z,11.07
2023-05-25T01:27:41.301Z,11.06
2023-05-25T01:30:47.297Z,11.08
2023-05-25T01:33:51.783Z,10.93
2023-05-25T01:36:54.520Z,11.00
2023-05-25T01:39:56.933Z,11.03
2023-05-25T01:42:59.410Z,11.02
2023-05-25T01:46:16.055Z,10.97
2023-05-25T01:49:57.420Z,11.03
2023-05-25T01:53:11.019Z,10.85
2023-05-25T01:56:14.409Z,10.86
2023-05-25T01:59:21.523Z,10.90
2023-05-25T02:02:24.837Z,10.94
2023-05-25T02:05:28.206Z,10.87
2023-05-25T02:08:30.878Z,10.81
2023-05-25T02:11:35.667Z,10.88
2023-05-25T02:14:38.101Z,10.85
2023-05-25T02:17:40.647Z,10.96
2023-05-25T02:20:44.040Z,10.92
2023-05-25T02:23:46.625Z,10.99
2023-05-25T02:26:49.121Z,11.04
2023-05-25T02:29:53.437Z,11.17
2023-05-25T02:32:56.794Z,11.27
2023-05-25T02:35:59.356Z,11.21
2023-05-25T02:39:02.395Z,11.14
2023-05-25T02:42:04.960Z,11.11
2023-05-25T02:45:13.549Z,11.19
2023-05-25T02:48:16.709Z,11.09
2023-05-25T02:51:19.679Z,11.19
2023-05-25T02:54:22.289Z,11.18
2023-05-25T02:57:24.652Z,11.04
2023-05-25T03:00:27.521Z,10.99
2023-05-25T03:03:29.923Z,10.98
2023-05-25T03:06:33.471Z,10.78
2023-05-25T03:09:44.691Z,10.80
2023-05-25T03:12:47.641Z,10.78
2023-05-25T03:15:50.215Z,10.85
2023-05-25T03:18:55.183Z,10.83
2023-05-25T03:21:58.396Z,10.93
2023-05-25T03:25:00.773Z,10.93
2023-05-25T03:28:03.412Z,10.92
2023-05-25T03:31:05.891Z,11.03
2023-05-25T03:34:08.892Z,10.99
2023-05-25T03:37:13.620Z,11.07
2023-05-25T03:40:17.526Z,11.17
2023-05-25T03:43:19.956Z,11.22
2023-05-25T03:46:23.796Z,11.25
2023-05-25T03:49:26.282Z,11.10
2023-05-25T03:52:28.844Z,11.24
2023-05-25T03:55:32.533Z,11.30
2023-05-25T03:58:34.911Z,11.49
2023-05-25T04:01:39.126Z,11.75
2023-05-25T04:04:42.070Z,12.72
2023-05-25T04:07:44.592Z,13.49
2023-05-25T04:10:47.575Z,14.04
2023-05-25T04:13:49.888Z,14.16
2023-05-25T04:16:53.672Z,14.41
2023-05-25T04:19:56.844Z,14.83
2023-05-25T04:22:59.372Z,15.00
2023-05-25T04:26:02.269Z,15.34
2023-05-25T04:29:04.918Z,15.34
2023-05-25T04:32:21.727Z,15.76
2023-05-25T04:35:31.830Z,15.75
2023-05-25T04:38:34.355Z,16.25
2023-05-25T04:41:38.025Z,16.04
2023-05-25T04:44:44.350Z,16.02
2023-05-25T04:47:47.665Z,16.16
2023-05-25T04:50:50.212Z,16.19
2023-05-25T04:53:52.729Z,16.92
2023-05-25T04:56:55.320Z,16.77
2023-05-25T04:59:58.606Z,16.99
2023-05-25T05:03:01.383Z,17.01
2023-05-25T05:06:04.105Z,16.90
2023-05-25T05:09:08.983Z,16.72
2023-05-25T05:12:12.183Z,17.37
2023-05-25T05:15:20.967Z,17.30
2023-05-25T05:18:25.515Z,17.48
2023-05-25T05:21:28.446Z,17.58
2023-05-25T05:24:31.148Z,18.06
2023-05-25T05:27:35.045Z,17.94
2023-05-25T05:30:46.683Z,18.55
2023-05-25T05:33:49.981Z,18.42
2023-05-25T05:36:57.342Z,18.42
2023-05-25T05:40:01.735Z,18.83
2023-05-25T05:43:04.240Z,18.59
2023-05-25T05:46:06.829Z,18.56
2023-05-25T05:49:09.250Z,18.94
2023-05-25T05:52:12.440Z,18.51
2023-05-25T05:55:14.856Z,18.71
2023-05-25T05:58:18.686Z,19.50
2023-05-25T06:01:22.233Z,19.13
2023-05-25T06:04:28.928Z,18.71
2023-05-25T06:07:35.271Z,18.70
2023-05-25T06:10:39.160Z,19.50
2023-05-25T06:13:42.081Z,19.21
2023-05-25T06:16:45.332Z,18.73
2023-05-25T06:19:48.464Z,18.58
2023-05-25T06:22:51.105Z,18.33
2023-05-25T06:25:55.375Z,18.57
2023-05-25T06:28:57.927Z,18.56
2023-05-25T06:32:00.936Z,18.55
2023-05-25T06:35:05.316Z,18.49
2023-05-25T06:38:08.118Z,18.66
2023-05-25T06:41:13.020Z,18.59
2023-05-25T06:44:15.848Z,18.58
2023-05-25T06:47:22.533Z,18.94
2023-05-25T06:50:25.012Z,18.64
2023-05-25T06:53:27.612Z,18.90
2023-05-25T06:56:32.629Z,19.08
2023-05-25T06:59:34.989Z,18.77
2023-05-25T07:02:37.431Z,19.25
2023-05-25T07:05:39.887Z,19.00
2023-05-25T07:08:42.295Z,18.94
2023-05-25T07:11:44.688Z,18.65
2023-05-25T07:14:48.571Z,18.44
2023-05-25T07:17:50.955Z,18.31
2023-05-25T07:20:53.639Z,18.19
2023-05-25T07:23:56.293Z,18.32
2023-05-25T07:26:58.705Z,18.05
2023-05-25T07:30:01.172Z,18.17
2023-05-25T07:33:03.756Z,18.03
2023-05-25T07:36:06.615Z,18.04
2023-05-25T07:39:09.331Z,18.23
2023-05-25T07:42:11.857Z,18.13
2023-05-25T07:45:14.325Z,18.46
2023-05-25T07:48:16.901Z,18.35
2023-05-25T07:51:19.318Z,18.19
2023-05-25T07:54:21.867Z,18.60
2023-05-25T07:57:25.410Z,18.35
2023-05-25T08:00:28.286Z,18.46
2023-05-25T08:03:44.287Z,18.50
2023-05-25T08:06:51.920Z,18.32
2023-05-25T08:09:54.469Z,18.67
2023-05-25T08:12:58.845Z,18.73
2023-05-25T08:16:01.516Z,18.67
2023-05-25T08:19:03.999Z,18.70
2023-05-25T08:22:06.434Z,18.99
2023-05-25T08:25:09.091Z,19.09
2023-05-25T08:28:11.876Z,19.22
2023-05-25T08:31:14.350Z,19.17
2023-05-25T08:34:17.417Z,19.42
2023-05-25T08:37:21.404Z,19.55
2023-05-25T08:40:24.130Z,19.86
2023-05-25T08:43:26.645Z,20.15
2023-05-25T08:46:33.545Z,20.07
2023-05-25T08:49:38.687Z,19.93
2023-05-25T08:52:49.439Z,20.24
2023-05-25T08:55:54.114Z,20.68
2023-05-25T08:59:27.081Z,20.64
2023-05-25T09:02:40.583Z,20.78
2023-05-25T09:05:43.288Z,20.42
2023-05-25T09:08:46.347Z,20.42
2023-05-25T09:11:48.878Z,20.37
2023-05-25T09:14:51.564Z,20.72
2023-05-25T09:17:54.040Z,21.30
2023-05-25T09:20:57.156Z,21.56
2023-05-25T09:24:01.161Z,21.32
2023-05-25T09:27:04.086Z,21.35
2023-05-25T09:30:07.121Z,21.85
2023-05-25T09:33:18.704Z,21.50
2023-05-25T09:36:23.360Z,21.78
2023-05-25T09:39:27.279Z,21.87
2023-05-25T09:42:30.317Z,22.31
2023-05-25T09:45:33.074Z,22.47
2023-05-25T09:48:35.554Z,22.45
2023-05-25T09:51:38.286Z,22.39
2023-05-25T09:54:40.958Z,22.96
2023-05-25T09:57:44.875Z,23.21
2023-05-25T10:00:47.476Z,23.11
2023-05-25T10:04:02.869Z,23.54
2023-05-25T10:07:06.748Z,23.67
2023-05-25T10:10:11.295Z,24.13
2023-05-25T10:13:15.107Z,23.85
2023-05-25T10:16:18.901Z,24.17
2023-05-25T10:19:23.297Z,23.60
2023-05-25T10:22:59.878Z,24.08
2023-05-25T10:26:04.518Z,23.58
2023-05-25T10:29:07.752Z,23.51
2023-05-25T10:32:10.266Z,24.17
2023-05-25T10:35:13.103Z,24.25
2023-05-25T10:38:15.700Z,23.96
2023-05-25T10:41:20.343Z,24.26
2023-05-25T10:44:23.056Z,24.31
2023-05-25T10:47:25.731Z,23.67
2023-05-25T10:50:28.795Z,23.58
2023-05-25T10:53:31.421Z,22.91
2023-05-25T10:56:34.214Z,22.51
2023-05-25T10:59:36.609Z,22.58
2023-05-25T11:02:55.137Z,22.63
2023-05-25T11:05:57.552Z,22.62
2023-05-25T11:09:03.271Z,22.68
2023-05-25T11:12:06.631Z,23.19
2023-05-25T11:15:15.411Z,23.41
2023-05-25T11:18:18.310Z,23.87
2023-05-25T11:21:32.477Z,23.88
2023-05-25T11:24:34.862Z,23.70
2023-05-25T11:27:46.844Z,24.28
2023-05-25T11:30:49.397Z,24.14
2023-05-25T11:33:57.528Z,24.12
2023-05-25T11:37:04.062Z,23.72
2023-05-25T11:40:08.104Z,23.87
2023-05-25T11:43:11.764Z,23.32
2023-05-25T11:46:15.039Z,23.86
2023-05-25T11:49:17.477Z,24.06
2023-05-25T11:52:22.326Z,24.14
2023-05-25T11:55:24.800Z,23.86
2023-05-25T11:58:34.446Z,23.70
2023-05-25T12:01:36.986Z,23.79
2023-05-25T12:04:40.820Z,23.52
2023-05-25T12:07:46.763Z,23.95
2023-05-25T12:10:52.340Z,24.30
2023-05-25T12:13:55.146Z,24.59
2023-05-25T12:16:57.949Z,24.39
2023-05-25T12:20:01.156Z,24.54
2023-05-25T12:23:03.721Z,24.55
2023-05-25T12:26:11.901Z,24.61
2023-05-25T12:29:14.474Z,24.66
2023-05-25T12:32:17.133Z,24.70
2023-05-25T12:35:19.721Z,24.83
2023-05-25T12:38:22.282Z,25.02
2023-05-25T12:41:24.846Z,25.39
2023-05-25T12:44:35.055Z,25.74
2023-05-25T12:47:37.698Z,25.75
2023-05-25T12:50:41.031Z,26.02
2023-05-25T12:53:54.274Z,25.66
2023-05-25T12:57:00.124Z,25.04
2023-05-25T13:00:02.581Z,24.94
2023-05-25T13:03:08.494Z,25.60
2023-05-25T13:06:10.987Z,25.60
2023-05-25T13:09:14.210Z,24.85
2023-05-25T13:12:16.947Z,24.24
2023-05-25T13:15:21.899Z,24.29
2023-05-25T13:18:24.285Z,24.57
2023-05-25T13:21:26.882Z,24.23
2023-05-25T13:24:29.248Z,24.73
2023-05-25T13:27:31.695Z,24.96
2023-05-25T13:30:34.096Z,24.66
2023-05-25T13:33:36.520Z,24.52
2023-05-25T13:36:38.961Z,24.56
2023-05-25T13:39:42.255Z,24.78
2023-05-25T13:42:44.662Z,25.14
2023-05-25T13:45:47.946Z,25.27
2023-05-25T13:48:50.615Z,25.58
2023-05-25T13:51:53.058Z,25.26
2023-05-25T13:54:55.619Z,24.61
2023-05-25T13:57:58.061Z,24.43
2023-05-25T14:01:00.816Z,24.68
2023-05-25T14:04:04.259Z,25.39
2023-05-25T14:07:06.755Z,25.59
2023-05-25T14:10:10.014Z,25.52
2023-05-25T14:13:13.096Z,25.19
2023-05-25T14:16:16.036Z,24.90
2023-05-25T14:19:18.437Z,24.72
2023-05-25T14:22:21.302Z,24.63
2023-05-25T14:25:23.769Z,24.82
2023-05-25T14:28:26.531Z,24.92
2023-05-25T14:31:28.964Z,25.02
2023-05-25T14:34:31.490Z,24.98
2023-05-25T14:37:34.135Z,24.34
2023-05-25T14:40:36.596Z,24.34
2023-05-25T14:43:39.029Z,24.41
2023-05-25T14:46:41.923Z,24.45
2023-05-25T14:49:44.992Z,24.37
2023-05-25T14:52:47.391Z,24.32
2023-05-25T14:55:49.752Z,24.59
2023-05-25T14:58:52.391Z,24.52
2023-05-25T15:01:54.958Z,24.80
2023-05-25T15:04:57.456Z,24.42
2023-05-25T15:07:59.751Z,23.97
2023-05-25T15:11:02.177Z,23.45
2023-05-25T15:14:04.603Z,23.13
2023-05-25T15:17:07.535Z,22.67
2023-05-25T15:20:10.723Z,22.39
2023-05-25T15:23:13.188Z,22.16
2023-05-25T15:26:15.541Z,22.19
2023-05-25T15:29:17.917Z,22.16
2023-05-25T15:32:20.923Z,21.85
2023-05-25T15:35:23.349Z,21.81
2023-05-25T15:38:25.703Z,21.90
2023-05-25T15:41:28.211Z,21.77
2023-05-25T15:44:30.832Z,21.48
2023-05-25T15:47:33.367Z,21.58
2023-05-25T15:50:36.075Z,21.78
2023-05-25T15:53:38.510Z,21.90
2023-05-25T15:56:40.970Z,22.19
2023-05-25T15:59:43.354Z,22.15
2023-05-25T16:02:45.931Z,22.03
2023-05-25T16:05:48.300Z,22.16
2023-05-25T16:08:50.755Z,22.17
2023-05-25T16:11:53.381Z,22.75
2023-05-25T16:14:56.114Z,22.88
2023-05-25T16:17:58.997Z,22.73
2023-05-25T16:21:01.810Z,22.84
2023-05-25T16:24:05.688Z,22.60
2023-05-25T16:27:08.386Z,22.04
2023-05-25T16:30:13.292Z,21.68
2023-05-25T16:33:16.112Z,21.43
2023-05-25T16:36:18.626Z,21.14
2023-05-25T16:39:21.070Z,21.11
2023-05-25T16:42:25.238Z,20.82
2023-05-25T16:45:27.649Z,20.87
2023-05-25T16:48:31.450Z,20.74
2023-05-25T16:51:33.974Z,20.71
2023-05-25T16:54:36.420Z,20.69
2023-05-25T16:57:38.794Z,20.40
2023-05-25T17:00:42.782Z,20.43
2023-05-25T17:03:45.228Z,20.43
2023-05-25T17:06:47.763Z,20.68
2023-05-25T17:09:50.207Z,21.07
2023-05-25T17:12:52.699Z,20.97
2023-05-25T17:15:55.139Z,20.82
2023-05-25T17:18:57.584Z,21.08
2023-05-25T17:22:00.058Z,21.05
2023-05-25T17:25:02.484Z,21.20
2023-05-25T17:28:04.886Z,21.03
2023-05-25T17:31:09.461Z,20.72
2023-05-25T17:34:12.068Z,20.46
2023-05-25T17:37:14.728Z,20.29
2023-05-25T17:40:17.137Z,20.04
2023-05-25T17:43:19.566Z,19.80
2023-05-25T17:46:22.469Z,19.55
2023-05-25T17:49:24.967Z,19.28
2023-05-25T17:52:29.431Z,19.12
2023-05-25T17:55:32.011Z,18.92
2023-05-25T17:58:34.452Z,18.75
2023-05-25T18:01:37.253Z,18.48
2023-05-25T18:04:39.753Z,18.42
2023-05-25T18:07:42.148Z,18.30
2023-05-25T18:10:44.601Z,18.15
2023-05-25T18:13:46.993Z,17.89
2023-05-25T18:16:49.478Z,17.67
2023-05-25T18:19:52.025Z,17.57
2023-05-25T18:22:54.456Z,17.64
2023-05-25T18:25:56.890Z,17.67
2023-05-25T18:28:59.282Z,17.66
2023-05-25T18:32:01.720Z,17.64
2023-05-25T18:35:04.358Z,17.59
2023-05-25T18:38:06.923Z,17.56
2023-05-25T18:41:09.255Z,17.49
2023-05-25T18:44:11.959Z,17.37
2023-05-25T18:47:14.551Z,17.31
2023-05-25T18:50:17.165Z,17.21
2023-05-25T18:53:19.675Z,17.22
2023-05-25T18:56:22.946Z,17.17
2023-05-25T18:59:25.467Z,17.18
2023-05-25T19:02:29.319Z,17.11
2023-05-25T19:05:31.881Z,17.02
2023-05-25T19:08:34.349Z,16.87
2023-05-25T19:11:36.705Z,16.66
2023-05-25T19:14:39.128Z,16.56
2023-05-25T19:17:41.571Z,16.60
2023-05-25T19:20:44.052Z,16.64
2023-05-25T19:23:47.683Z,16.59
2023-05-25T19:26:51.609Z,16.63
2023-05-25T19:29:53.956Z,16.62
2023-05-25T19:32:56.445Z,16.49
2023-05-25T19:35:58.948Z,16.50
2023-05-25T19:39:01.534Z,16.50
2023-05-25T19:42:05.041Z,16.34
2023-05-25T19:45:07.834Z,16.30
2023-05-25T19:48:10.445Z,16.13
2023-05-25T19:51:13.011Z,16.29
2023-05-25T19:54:15.649Z,16.30
2023-05-25T19:57:18.008Z,16.26
2023-05-25T20:00:26.580Z,16.30
2023-05-25T20:03:29.634Z,16.29
2023-05-25T20:06:32.772Z,16.26
2023-05-25T20:09:35.888Z,16.31
2023-05-25T20:12:38.649Z,16.34
2023-05-25T20:15:41.438Z,16.44
2023-05-25T20:18:44.725Z,16.41
2023-05-25T20:21:47.553Z,16.38
2023-05-25T20:24:54.474Z,16.33
2023-05-25T20:27:57.461Z,16.18
2023-05-25T20:30:59.816Z,15.96
2023-05-25T20:34:02.259Z,15.84
2023-05-25T20:37:05.098Z,15.74
2023-05-25T20:40:08.198Z,15.62
2023-05-25T20:43:10.810Z,15.39
2023-05-25T20:46:14.275Z,15.23
2023-05-25T20:49:16.779Z,14.99
2023-05-25T20:52:19.137Z,14.76
2023-05-25T20:55:21.645Z,14.65
2023-05-25T20:58:24.289Z,14.49
2023-05-25T21:01:26.750Z,14.41
2023-05-25T21:04:31.647Z,14.31
2023-05-25T21:07:34.360Z,14.20
2023-05-25T21:10:37.308Z,14.17
2023-05-25T21:13:39.656Z,14.13
2023-05-25T21:16:42.340Z,14.07
2023-05-25T21:19:44.928Z,13.98
2023-05-25T21:22:47.216Z,13.86
2023-05-25T21:25:49.668Z,13.84
2023-05-25T21:28:52.112Z,13.74
2023-05-25T21:31:54.605Z,13.52
2023-05-25T21:34:57.236Z,13.52
2023-05-25T21:37:59.597Z,13.40
2023-05-25T21:41:01.926Z,13.37
2023-05-25T21:44:04.349Z,13.19
2023-05-25T21:47:06.867Z,13.05
2023-05-25T21:50:09.749Z,13.03
2023-05-25T21:53:12.219Z,12.86
2023-05-25T21:56:14.594Z,12.81
2023-05-25T21:59:16.921Z,12.71
2023-05-25T22:02:19.488Z,12.54
2023-05-25T22:05:22.120Z,12.47
2023-05-25T22:08:24.960Z,12.31
2023-05-25T22:11:27.387Z,12.28
2023-05-25T22:14:29.798Z,12.28
2023-05-25T22:17:32.260Z,12.09
2023-05-25T22:20:38.567Z,12.00
2023-05-25T22:23:41.201Z,11.77
2023-05-25T22:26:43.546Z,11.72
2023-05-25T22:29:46.089Z,11.66
2023-05-25T22:32:48.629Z,11.67
2023-05-25T22:35:51.636Z,11.52
2023-05-25T22:38:53.987Z,11.42
2023-05-25T22:41:56.427Z,11.36
2023-05-25T22:44:58.728Z,11.36
2023-05-25T22:48:01.286Z,11.28
2023-05-25T22:51:03.958Z,11.27
2023-05-25T22:54:06.363Z,11.22
2023-05-25T22:57:09.895Z,11.11
2023-05-25T23:00:12.655Z,11.21
2023-05-25T23:03:15.177Z,11.10
2023-05-25T23:06:17.687Z,11.00
2023-05-25T23:09:20.049Z,10.91
2023-05-25T23:12:22.488Z,10.84
2023-05-25T23:15:24.798Z,10.74
2023-05-25T23:18:27.343Z,10.69
2023-05-25T23:21:29.640Z,10.57
2023-05-25T23:24:32.146Z,10.57
2023-05-25T23:27:34.476Z,10.58
2023-05-25T23:30:36.880Z,10.55
2023-05-25T23:33:39.241Z,10.53
2023-05-25T23:36:42.984Z,10.40
2023-05-25T23:39:45.523Z,10.37
2023-05-25T23:42:48.106Z,10.37
2023-05-25T23:45:50.622Z,10.40
2023-05-25T23:48:53.035Z,10.30
2023-05-25T23:51:55.570Z,10.27
2023-05-25T23:54:57.966Z,10.32
2023-05-25T23:58:00.382Z,10.24
